sensor_id;sensor_type;location;lat;lon;timestamp;pressure;altitude;pressure_sealevel;temperature;humidity
75855;BME280;64502;59.976;30.316;2023-07-13T00:01:12;100358.28;;;17.77;46.53
75855;BME280;64502;59.976;30.316;2023-07-13T00:03:37;100356.44;;;17.78;45.71
75855;BME280;64502;59.976;30.316;2023-07-13T00:06:03;100351.25;;;17.76;46.88
75855;BME280;64502;59.976;30.316;2023-07-13T00:08:31;100347.59;;;17.77;47.64
75855;BME280;64502;59.976;30.316;2023-07-13T00:10:59;100351.69;;;17.71;48.30
75855;BME280;64502;59.976;30.316;2023-07-13T00:13:24;100344.94;;;17.67;48.72
75855;BME280;64502;59.976;30.316;2023-07-13T00:15:49;100333.59;;;17.65;48.66
75855;BME280;64502;59.976;30.316;2023-07-13T00:18:15;100342.72;;;17.63;48.38
75855;BME280;64502;59.976;30.316;2023-07-13T00:20:40;100336.13;;;17.57;49.11
75855;BME280;64502;59.976;30.316;2023-07-13T00:23:07;100334.59;;;17.55;49.79
75855;BME280;64502;59.976;30.316;2023-07-13T00:25:32;100332.34;;;17.50;49.79
75855;BME280;64502;59.976;30.316;2023-07-13T00:27:58;100325.34;;;17.49;50.35
75855;BME280;64502;59.976;30.316;2023-07-13T00:30:23;100324.78;;;17.45;50.80
75855;BME280;64502;59.976;30.316;2023-07-13T00:32:49;100321.44;;;17.43;50.81
75855;BME280;64502;59.976;30.316;2023-07-13T00:35:15;100320.84;;;17.40;51.21
75855;BME280;64502;59.976;30.316;2023-07-13T00:37:41;100325.34;;;17.39;51.15
75855;BME280;64502;59.976;30.316;2023-07-13T00:40:09;100329.84;;;17.39;51.46
75855;BME280;64502;59.976;30.316;2023-07-13T00:42:35;100323.69;;;17.38;51.17
75855;BME280;64502;59.976;30.316;2023-07-13T00:47:45;100322.25;;;17.34;52.47
75855;BME280;64502;59.976;30.316;2023-07-13T00:50:15;100314.84;;;17.28;51.72
75855;BME280;64502;59.976;30.316;2023-07-13T00:52:46;100309.22;;;17.21;53.04
75855;BME280;64502;59.976;30.316;2023-07-13T00:55:13;100301.78;;;17.15;53.35
75855;BME280;64502;59.976;30.316;2023-07-13T00:57:40;100303.91;;;17.12;53.35
75855;BME280;64502;59.976;30.316;2023-07-13T01:00:07;100299.56;;;17.11;53.92
75855;BME280;64502;59.976;30.316;2023-07-13T01:02:35;100301.09;;;17.13;53.22
75855;BME280;64502;59.976;30.316;2023-07-13T01:05:12;100302.78;;;17.14;51.86
75855;BME280;64502;59.976;30.316;2023-07-13T01:07:40;100296.03;;;17.10;52.37
75855;BME280;64502;59.976;30.316;2023-07-13T01:10:34;100296.75;;;17.12;51.17
75855;BME280;64502;59.976;30.316;2023-07-13T01:13:09;100297.63;;;17.03;52.67
75855;BME280;64502;59.976;30.316;2023-07-13T01:15:42;100303.78;;;17.03;52.21
75855;BME280;64502;59.976;30.316;2023-07-13T01:18:13;100307.16;;;17.05;52.46
75855;BME280;64502;59.976;30.316;2023-07-13T01:20:40;100298.16;;;17.06;51.66
75855;BME280;64502;59.976;30.316;2023-07-13T01:23:09;100294.50;;;17.07;52.40
75855;BME280;64502;59.976;30.316;2023-07-13T01:25:35;100295.63;;;17.05;52.71
75855;BME280;64502;59.976;30.316;2023-07-13T01:28:03;100296.34;;;17.07;51.66
75855;BME280;64502;59.976;30.316;2023-07-13T01:30:29;100298.03;;;17.08;51.53
75855;BME280;64502;59.976;30.316;2023-07-13T01:32:54;100292.69;;;17.08;51.45
75855;BME280;64502;59.976;30.316;2023-07-13T01:35:20;100286.78;;;17.04;52.22
75855;BME280;64502;59.976;30.316;2023-07-13T01:37:46;100286.13;;;17.02;52.19
75855;BME280;64502;59.976;30.316;2023-07-13T01:40:12;100297.75;;;17.01;51.58
75855;BME280;64502;59.976;30.316;2023-07-13T03:59:09;100258.09;;;18.20;46.49
75855;BME280;64502;59.976;30.316;2023-07-13T04:01:34;100258.47;;;18.25;46.25
75855;BME280;64502;59.976;30.316;2023-07-13T04:04:00;100261.97;;;18.26;46.28
75855;BME280;64502;59.976;30.316;2023-07-13T04:06:28;100258.31;;;18.27;46.47
75855;BME280;64502;59.976;30.316;2023-07-13T04:08:57;100267.16;;;18.27;45.73
75855;BME280;64502;59.976;30.316;2023-07-13T04:11:23;100273.81;;;18.23;46.34
75855;BME280;64502;59.976;30.316;2023-07-13T04:13:50;100273.25;;;18.19;46.13
75855;BME280;64502;59.976;30.316;2023-07-13T04:16:16;100266.09;;;18.20;46.20
75855;BME280;64502;59.976;30.316;2023-07-13T04:18:42;100268.00;;;18.28;46.34
75855;BME280;64502;59.976;30.316;2023-07-13T04:21:08;100263.69;;;18.45;45.71
75855;BME280;64502;59.976;30.316;2023-07-13T04:23:37;100258.03;;;18.66;45.33
75855;BME280;64502;59.976;30.316;2023-07-13T04:26:03;100248.72;;;18.88;45.10
75855;BME280;64502;59.976;30.316;2023-07-13T04:28:28;100246.34;;;19.02;43.44
75855;BME280;64502;59.976;30.316;2023-07-13T04:30:54;100250.31;;;19.16;42.92
75855;BME280;64502;59.976;30.316;2023-07-13T04:33:20;100239.34;;;19.27;41.79
75855;BME280;64502;59.976;30.316;2023-07-13T04:35:53;100241.94;;;19.37;41.96
75855;BME280;64502;59.976;30.316;2023-07-13T04:38:20;100244.94;;;19.42;41.63
75855;BME280;64502;59.976;30.316;2023-07-13T04:40:46;100243.19;;;19.51;41.09
75855;BME280;64502;59.976;30.316;2023-07-13T04:43:11;100245.72;;;19.61;40.74
75855;BME280;64502;59.976;30.316;2023-07-13T04:45:37;100244.50;;;19.73;40.71
75855;BME280;64502;59.976;30.316;2023-07-13T04:48:02;100244.72;;;19.88;41.16
75855;BME280;64502;59.976;30.316;2023-07-13T04:50:28;100241.94;;;20.06;40.28
75855;BME280;64502;59.976;30.316;2023-07-13T04:52:53;100240.81;;;20.25;39.83
75855;BME280;64502;59.976;30.316;2023-07-13T04:55:19;100234.16;;;20.45;38.49
75855;BME280;64502;59.976;30.316;2023-07-13T04:57:46;100233.72;;;20.66;38.18
75855;BME280;64502;59.976;30.316;2023-07-13T05:00:12;100236.41;;;20.82;37.79
75855;BME280;64502;59.976;30.316;2023-07-13T05:02:39;100219.28;;;21.00;37.43
75855;BME280;64502;59.976;30.316;2023-07-13T05:05:06;100230.81;;;21.25;36.82
75855;BME280;64502;59.976;30.316;2023-07-13T05:07:31;100229.00;;;21.42;36.56
75855;BME280;64502;59.976;30.316;2023-07-13T05:09:59;100233.13;;;21.61;36.90
75855;BME280;64502;59.976;30.316;2023-07-13T05:12:25;100241.97;;;21.78;36.21
75855;BME280;64502;59.976;30.316;2023-07-13T05:14:50;100232.69;;;21.88;36.63
75855;BME280;64502;59.976;30.316;2023-07-13T05:17:16;100234.63;;;22.03;35.89
75855;BME280;64502;59.976;30.316;2023-07-13T05:19:41;100238.94;;;22.12;35.27
75855;BME280;64502;59.976;30.316;2023-07-13T05:22:07;100242.28;;;22.22;34.96
75855;BME280;64502;59.976;30.316;2023-07-13T05:24:33;100238.53;;;22.31;35.03
75855;BME280;64502;59.976;30.316;2023-07-13T05:26:59;100236.34;;;22.35;34.18
75855;BME280;64502;59.976;30.316;2023-07-13T05:29:24;100238.53;;;22.31;33.75
75855;BME280;64502;59.976;30.316;2023-07-13T05:31:50;100249.03;;;22.18;33.85
75855;BME280;64502;59.976;30.316;2023-07-13T05:34:16;100254.59;;;22.08;33.90
75855;BME280;64502;59.976;30.316;2023-07-13T05:36:41;100261.19;;;21.98;34.20
75855;BME280;64502;59.976;30.316;2023-07-13T05:39:09;100256.00;;;21.88;34.05
75855;BME280;64502;59.976;30.316;2023-07-13T05:41:35;100256.06;;;21.71;35.06
75855;BME280;64502;59.976;30.316;2023-07-13T05:44:01;100251.06;;;21.60;35.26
75855;BME280;64502;59.976;30.316;2023-07-13T05:46:26;100254.09;;;21.57;35.02
75855;BME280;64502;59.976;30.316;2023-07-13T05:48:51;100254.44;;;21.62;35.59
75855;BME280;64502;59.976;30.316;2023-07-13T05:51:17;100257.78;;;21.64;35.83
75855;BME280;64502;59.976;30.316;2023-07-13T05:53:42;100256.94;;;21.72;35.48
75855;BME280;64502;59.976;30.316;2023-07-13T05:56:07;100256.34;;;21.85;35.19
75855;BME280;64502;59.976;30.316;2023-07-13T05:58:33;100260.03;;;21.92;35.13
75855;BME280;64502;59.976;30.316;2023-07-13T06:01:08;100255.94;;;22.04;35.50
75855;BME280;64502;59.976;30.316;2023-07-13T06:03:34;100261.09;;;22.22;36.07
75855;BME280;64502;59.976;30.316;2023-07-13T06:06:00;100253.22;;;22.12;35.21
75855;BME280;64502;59.976;30.316;2023-07-13T06:08:27;100246.34;;;22.18;34.88
75855;BME280;64502;59.976;30.316;2023-07-13T06:10:52;100243.25;;;22.29;34.76
75855;BME280;64502;59.976;30.316;2023-07-13T06:13:18;100238.84;;;22.36;34.76
75855;BME280;64502;59.976;30.316;2023-07-13T06:15:48;100243.78;;;22.48;35.24
75855;BME280;64502;59.976;30.316;2023-07-13T06:18:14;100238.09;;;22.51;34.77
75855;BME280;64502;59.976;30.316;2023-07-13T06:20:39;100232.66;;;22.59;35.20
75855;BME280;64502;59.976;30.316;2023-07-13T06:23:05;100228.16;;;22.74;34.81
75855;BME280;64502;59.976;30.316;2023-07-13T06:25:30;100229.03;;;22.90;35.21
75855;BME280;64502;59.976;30.316;2023-07-13T06:27:56;100242.25;;;22.99;34.71
75855;BME280;64502;59.976;30.316;2023-07-13T06:30:21;100243.75;;;23.02;35.15
75855;BME280;64502;59.976;30.316;2023-07-13T06:35:12;100257.31;;;23.09;35.55
75855;BME280;64502;59.976;30.316;2023-07-13T06:37:38;100259.00;;;23.10;35.58
75855;BME280;64502;59.976;30.316;2023-07-13T06:40:04;100262.50;;;23.10;35.58
75855;BME280;64502;59.976;30.316;2023-07-13T06:42:30;100258.03;;;23.02;35.50
75855;BME280;64502;59.976;30.316;2023-07-13T06:44:55;100254.63;;;22.86;36.27
75855;BME280;64502;59.976;30.316;2023-07-13T06:47:21;100263.53;;;22.63;36.33
75855;BME280;64502;59.976;30.316;2023-07-13T06:49:46;100265.44;;;22.54;36.62
75855;BME280;64502;59.976;30.316;2023-07-13T06:52:12;100262.09;;;22.52;36.03
75855;BME280;64502;59.976;30.316;2023-07-13T06:54:37;100264.94;;;22.59;36.48
75855;BME280;64502;59.976;30.316;2023-07-13T06:57:02;100270.41;;;22.66;36.17
75855;BME280;64502;59.976;30.316;2023-07-13T06:59:28;100271.72;;;22.70;35.95
75855;BME280;64502;59.976;30.316;2023-07-13T07:01:53;100272.53;;;22.47;37.55
75855;BME280;64502;59.976;30.316;2023-07-13T07:04:19;100277.22;;;22.22;38.45
75855;BME280;64502;59.976;30.316;2023-07-13T07:06:44;100287.91;;;21.91;40.38
75855;BME280;64502;59.976;30.316;2023-07-13T07:09:11;100285.31;;;21.66;40.93
75855;BME280;64502;59.976;30.316;2023-07-13T07:11:36;100282.00;;;21.48;41.17
75855;BME280;64502;59.976;30.316;2023-07-13T07:14:01;100289.03;;;21.41;42.02
75855;BME280;64502;59.976;30.316;2023-07-13T07:16:27;100288.34;;;21.22;41.74
75855;BME280;64502;59.976;30.316;2023-07-13T07:18:52;100288.34;;;21.14;42.28
75855;BME280;64502;59.976;30.316;2023-07-13T07:21:18;100291.56;;;21.18;42.77
75855;BME280;64502;59.976;30.316;2023-07-13T07:23:45;100292.06;;;21.21;42.40
75855;BME280;64502;59.976;30.316;2023-07-13T07:26:11;100293.22;;;21.19;42.19
75855;BME280;64502;59.976;30.316;2023-07-13T07:28:37;100296.75;;;21.19;42.27
75855;BME280;64502;59.976;30.316;2023-07-13T07:31:02;100296.09;;;21.25;42.58
75855;BME280;64502;59.976;30.316;2023-07-13T07:33:27;100298.41;;;21.37;41.94
75855;BME280;64502;59.976;30.316;2023-07-13T07:35:53;100298.78;;;21.42;42.21
75855;BME280;64502;59.976;30.316;2023-07-13T07:38:18;100301.28;;;21.43;42.51
75855;BME280;64502;59.976;30.316;2023-07-13T07:40:44;100304.44;;;21.47;42.40
75855;BME280;64502;59.976;30.316;2023-07-13T07:43:11;100307.13;;;21.47;42.49
75855;BME280;64502;59.976;30.316;2023-07-13T07:45:37;100304.13;;;21.58;42.29
75855;BME280;64502;59.976;30.316;2023-07-13T07:48:06;100301.97;;;21.45;42.02
75855;BME280;64502;59.976;30.316;2023-07-13T07:50:32;100304.13;;;21.25;42.58
75855;BME280;64502;59.976;30.316;2023-07-13T07:52:58;100312.34;;;20.99;43.19
75855;BME280;64502;59.976;30.316;2023-07-13T07:55:24;100311.47;;;20.74;43.97
75855;BME280;64502;59.976;30.316;2023-07-13T07:57:52;100315.81;;;20.67;44.02
75855;BME280;64502;59.976;30.316;2023-07-13T08:00:18;100318.00;;;20.64;44.13
75855;BME280;64502;59.976;30.316;2023-07-13T08:02:45;100314.63;;;20.61;44.63
75855;BME280;64502;59.976;30.316;2023-07-13T08:05:11;100304.09;;;20.68;44.20
75855;BME280;64502;59.976;30.316;2023-07-13T08:07:38;100306.81;;;20.84;43.29
75855;BME280;64502;59.976;30.316;2023-07-13T08:10:05;100300.59;;;20.92;43.24
75855;BME280;64502;59.976;30.316;2023-07-13T08:12:37;100303.13;;;21.18;42.93
75855;BME280;64502;59.976;30.316;2023-07-13T08:15:04;100295.06;;;21.35;43.32
75855;BME280;64502;59.976;30.316;2023-07-13T08:17:31;100299.59;;;21.50;42.20
75855;BME280;64502;59.976;30.316;2023-07-13T08:19:56;100299.59;;;21.59;42.23
75855;BME280;64502;59.976;30.316;2023-07-13T08:22:22;100290.34;;;21.61;42.32
75855;BME280;64502;59.976;30.316;2023-07-13T08:24:47;100292.84;;;21.63;42.07
75855;BME280;64502;59.976;30.316;2023-07-13T08:27:20;100299.22;;;21.70;41.95
75855;BME280;64502;59.976;30.316;2023-07-13T08:29:47;100299.88;;;21.80;41.77
75855;BME280;64502;59.976;30.316;2023-07-13T08:32:13;100291.22;;;22.01;41.54
75855;BME280;64502;59.976;30.316;2023-07-13T08:34:39;100296.72;;;22.24;40.72
75855;BME280;64502;59.976;30.316;2023-07-13T08:37:05;100292.75;;;22.43;40.19
75855;BME280;64502;59.976;30.316;2023-07-13T08:39:31;100306.94;;;22.60;39.86
75855;BME280;64502;59.976;30.316;2023-07-13T08:42:04;100297.19;;;22.59;39.94
75855;BME280;64502;59.976;30.316;2023-07-13T08:47:04;100289.28;;;22.80;39.57
75855;BME280;64502;59.976;30.316;2023-07-13T08:49:30;100295.91;;;23.01;39.39
75855;BME280;64502;59.976;30.316;2023-07-13T08:52:08;100293.50;;;23.44;39.04
75855;BME280;64502;59.976;30.316;2023-07-13T08:54:42;100289.09;;;23.96;37.48
75855;BME280;64502;59.976;30.316;2023-07-13T08:57:18;100280.53;;;24.58;36.98
75855;BME280;64502;59.976;30.316;2023-07-13T08:59:44;100279.75;;;25.07;34.69
75855;BME280;64502;59.976;30.316;2023-07-13T09:04:50;100282.34;;;25.15;35.20
75855;BME280;64502;59.976;30.316;2023-07-13T09:07:43;100281.31;;;25.44;35.34
75855;BME280;64502;59.976;30.316;2023-07-13T09:10:29;100282.53;;;26.05;34.85
75855;BME280;64502;59.976;30.316;2023-07-13T09:13:27;100279.00;;;26.52;34.22
75855;BME280;64502;59.976;30.316;2023-07-13T09:15:59;100271.94;;;26.58;33.63
75855;BME280;64502;59.976;30.316;2023-07-13T09:18:37;100280.75;;;26.32;33.91
75855;BME280;64502;59.976;30.316;2023-07-13T09:21:09;100271.19;;;26.29;32.62
75855;BME280;64502;59.976;30.316;2023-07-13T09:23:36;100273.28;;;26.41;32.85
75855;BME280;64502;59.976;30.316;2023-07-13T09:26:13;100268.84;;;26.74;32.73
75855;BME280;64502;59.976;30.316;2023-07-13T09:28:43;100278.56;;;26.55;32.71
75855;BME280;64502;59.976;30.316;2023-07-13T09:31:13;100277.69;;;26.42;33.47
75855;BME280;64502;59.976;30.316;2023-07-13T09:33:39;100278.00;;;26.19;34.42
75855;BME280;64502;59.976;30.316;2023-07-13T09:36:19;100280.47;;;26.07;34.84
75855;BME280;64502;59.976;30.316;2023-07-13T09:38:47;100276.69;;;26.01;34.75
75855;BME280;64502;59.976;30.316;2023-07-13T09:41:31;100285.22;;;26.05;34.97
75855;BME280;64502;59.976;30.316;2023-07-13T09:46:26;100275.09;;;25.79;35.05
75855;BME280;64502;59.976;30.316;2023-07-13T09:48:52;100265.69;;;25.68;34.74
75855;BME280;64502;59.976;30.316;2023-07-13T09:51:18;100265.88;;;25.66;35.26
75855;BME280;64502;59.976;30.316;2023-07-13T09:53:43;100273.97;;;25.66;35.49
75855;BME280;64502;59.976;30.316;2023-07-13T09:56:22;100258.81;;;25.72;35.54
75855;BME280;64502;59.976;30.316;2023-07-13T09:58:48;100257.09;;;25.93;34.78
75855;BME280;64502;59.976;30.316;2023-07-13T10:01:14;100249.28;;;26.11;34.29
75855;BME280;64502;59.976;30.316;2023-07-13T10:03:51;100254.75;;;26.31;33.69
75855;BME280;64502;59.976;30.316;2023-07-13T10:06:21;100267.81;;;26.14;33.93
75855;BME280;64502;59.976;30.316;2023-07-13T10:08:52;100264.75;;;26.30;34.04
75855;BME280;64502;59.976;30.316;2023-07-13T10:13:53;100271.13;;;26.84;32.77
75855;BME280;64502;59.976;30.316;2023-07-13T10:16:21;100260.53;;;27.42;30.89
75855;BME280;64502;59.976;30.316;2023-07-13T10:18:50;100262.72;;;27.79;30.96
75855;BME280;64502;59.976;30.316;2023-07-13T10:21:22;100255.66;;;27.84;30.67
75855;BME280;64502;59.976;30.316;2023-07-13T10:23:53;100265.94;;;27.56;30.50
75855;BME280;64502;59.976;30.316;2023-07-13T10:26:29;100270.13;;;27.25;32.03
75855;BME280;64502;59.976;30.316;2023-07-13T10:29:00;100269.78;;;26.47;32.87
75855;BME280;64502;59.976;30.316;2023-07-13T10:31:27;100269.34;;;25.88;33.43
75855;BME280;64502;59.976;30.316;2023-07-13T10:33:52;100283.22;;;25.79;34.20
75855;BME280;64502;59.976;30.316;2023-07-13T10:38:57;100278.16;;;26.04;33.51
75855;BME280;64502;59.976;30.316;2023-07-13T10:41:26;100276.94;;;26.06;33.75
75855;BME280;64502;59.976;30.316;2023-07-13T10:43:54;100273.41;;;26.12;34.04
75855;BME280;64502;59.976;30.316;2023-07-13T10:46:23;100269.00;;;26.60;33.18
75855;BME280;64502;59.976;30.316;2023-07-13T10:48:52;100271.97;;;26.91;32.92
75855;BME280;64502;59.976;30.316;2023-07-13T10:51:20;100280.94;;;27.05;32.29
75855;BME280;64502;59.976;30.316;2023-07-13T10:53:47;100270.94;;;27.45;31.50
75855;BME280;64502;59.976;30.316;2023-07-13T10:58:47;100272.59;;;27.53;30.56
75855;BME280;64502;59.976;30.316;2023-07-13T11:01:39;100270.25;;;27.70;31.04
75855;BME280;64502;59.976;30.316;2023-07-13T11:04:05;100284.06;;;27.49;30.94
75855;BME280;64502;59.976;30.316;2023-07-13T11:06:38;100280.97;;;27.32;30.99
75855;BME280;64502;59.976;30.316;2023-07-13T11:09:32;100270.97;;;27.19;32.19
75855;BME280;64502;59.976;30.316;2023-07-13T11:27:50;100291.09;;;26.70;32.75
75855;BME280;64502;59.976;30.316;2023-07-13T11:33:20;100287.47;;;25.66;35.04
75855;BME280;64502;59.976;30.316;2023-07-13T11:35:58;100285.91;;;25.51;35.45
75855;BME280;64502;59.976;30.316;2023-07-13T11:39:05;100281.38;;;25.51;35.09
75855;BME280;64502;59.976;30.316;2023-07-13T11:41:42;100287.38;;;25.46;35.55
75855;BME280;64502;59.976;30.316;2023-07-13T11:44:20;100288.19;;;25.47;35.17
75855;BME280;64502;59.976;30.316;2023-07-13T11:46:51;100287.41;;;25.25;36.22
75855;BME280;64502;59.976;30.316;2023-07-13T11:49:25;100290.50;;;25.00;36.06
75855;BME280;64502;59.976;30.316;2023-07-13T11:51:53;100297.06;;;24.91;37.41
75855;BME280;64502;59.976;30.316;2023-07-13T11:54:26;100299.56;;;24.93;36.69
75855;BME280;64502;59.976;30.316;2023-07-13T11:56:53;100303.66;;;24.67;38.23
75855;BME280;64502;59.976;30.316;2023-07-13T11:59:20;100301.03;;;24.37;39.46
75855;BME280;64502;59.976;30.316;2023-07-13T12:01:50;100306.25;;;24.24;38.75
75855;BME280;64502;59.976;30.316;2023-07-13T12:04:26;100306.91;;;24.11;39.18
75855;BME280;64502;59.976;30.316;2023-07-13T12:06:56;100307.59;;;23.99;40.12
75855;BME280;64502;59.976;30.316;2023-07-13T12:09:26;100307.56;;;23.84;41.21
75855;BME280;64502;59.976;30.316;2023-07-13T12:11:53;100308.75;;;23.66;41.49
75855;BME280;64502;59.976;30.316;2023-07-13T12:14:18;100309.38;;;23.54;41.92
75855;BME280;64502;59.976;30.316;2023-07-13T12:16:45;100308.47;;;23.46;42.50
75855;BME280;64502;59.976;30.316;2023-07-13T12:19:25;100314.56;;;23.40;41.73
75855;BME280;64502;59.976;30.316;2023-07-13T12:21:54;100307.00;;;23.21;42.66
75855;BME280;64502;59.976;30.316;2023-07-13T12:24:21;100308.09;;;23.12;43.49
75855;BME280;64502;59.976;30.316;2023-07-13T12:26:59;100312.38;;;23.21;43.37
75855;BME280;64502;59.976;30.316;2023-07-13T12:29:26;100310.44;;;23.15;44.53
75855;BME280;64502;59.976;30.316;2023-07-13T12:31:52;100311.56;;;23.20;44.00
75855;BME280;64502;59.976;30.316;2023-07-13T12:34:23;100310.38;;;23.38;44.03
75855;BME280;64502;59.976;30.316;2023-07-13T12:39:20;100311.31;;;23.83;43.41
75855;BME280;64502;59.976;30.316;2023-07-13T12:41:49;100303.75;;;24.08;42.65
75855;BME280;64502;59.976;30.316;2023-07-13T12:44:24;100313.09;;;24.42;41.75
75855;BME280;64502;59.976;30.316;2023-07-13T12:46:57;100314.47;;;24.89;40.96
75855;BME280;64502;59.976;30.316;2023-07-13T12:49:26;100303.81;;;25.52;39.21
75855;BME280;64502;59.976;30.316;2023-07-13T12:51:56;100303.22;;;26.26;38.02
75855;BME280;64502;59.976;30.316;2023-07-13T12:54:22;100301.69;;;26.58;37.98
75855;BME280;64502;59.976;30.316;2023-07-13T12:56:50;100297.19;;;27.05;37.05
75855;BME280;64502;59.976;30.316;2023-07-13T12:59:22;100298.88;;;27.46;37.09
75855;BME280;64502;59.976;30.316;2023-07-13T13:01:49;100288.09;;;28.11;35.41
75855;BME280;64502;59.976;30.316;2023-07-13T13:04:15;100285.09;;;28.32;36.14
75855;BME280;64502;59.976;30.316;2023-07-13T13:06:41;100278.78;;;28.77;34.08
75855;BME280;64502;59.976;30.316;2023-07-13T13:09:13;100279.81;;;29.33;33.95
75855;BME280;64502;59.976;30.316;2023-07-13T13:11:40;100280.22;;;29.36;32.19
75855;BME280;64502;59.976;30.316;2023-07-13T13:14:06;100289.66;;;29.77;32.32
75855;BME280;64502;59.976;30.316;2023-07-13T13:16:35;100278.78;;;30.74;30.72
75855;BME280;64502;59.976;30.316;2023-07-13T13:19:13;100268.09;;;32.83;29.39
75855;BME280;64502;59.976;30.316;2023-07-13T13:21:43;100268.25;;;35.08;25.64
75855;BME280;64502;59.976;30.316;2023-07-13T13:24:15;100265.06;;;36.32;23.44
75855;BME280;64502;59.976;30.316;2023-07-13T13:26:41;100270.06;;;36.45;21.55
75855;BME280;64502;59.976;30.316;2023-07-13T13:29:26;100269.28;;;36.81;23.37
75855;BME280;64502;59.976;30.316;2023-07-13T13:31:53;100266.81;;;37.05;20.76
75855;BME280;64502;59.976;30.316;2023-07-13T13:34:20;100264.31;;;37.54;20.27
75855;BME280;64502;59.976;30.316;2023-07-13T13:36:48;100267.78;;;37.81;19.55
75855;BME280;64502;59.976;30.316;2023-07-13T13:41:49;100256.13;;;38.04;19.04
75855;BME280;64502;59.976;30.316;2023-07-13T13:44:18;100265.81;;;38.46;18.94
75855;BME280;64502;59.976;30.316;2023-07-13T13:46:52;100264.56;;;38.23;18.99
75855;BME280;64502;59.976;30.316;2023-07-13T13:49:22;100259.94;;;36.97;19.82
75855;BME280;64502;59.976;30.316;2023-07-13T13:51:49;100261.22;;;36.33;20.34
75855;BME280;64502;59.976;30.316;2023-07-13T13:54:17;100258.31;;;35.92;20.99
75855;BME280;64502;59.976;30.316;2023-07-13T13:56:44;100264.38;;;35.42;21.83
75855;BME280;64502;59.976;30.316;2023-07-13T13:59:10;100272.53;;;34.99;22.13
75855;BME280;64502;59.976;30.316;2023-07-13T14:01:36;100271.94;;;34.65;23.07
75855;BME280;64502;59.976;30.316;2023-07-13T14:04:03;100254.81;;;34.03;23.44
75855;BME280;64502;59.976;30.316;2023-07-13T14:06:29;100249.28;;;33.54;24.02
75855;BME280;64502;59.976;30.316;2023-07-13T14:08:54;100258.97;;;32.94;24.50
75855;BME280;64502;59.976;30.316;2023-07-13T14:11:22;100253.91;;;32.41;25.42
75855;BME280;64502;59.976;30.316;2023-07-13T14:13:54;100265.69;;;32.41;25.79
75855;BME280;64502;59.976;30.316;2023-07-13T14:16:21;100262.69;;;32.43;25.43
75855;BME280;64502;59.976;30.316;2023-07-13T14:18:48;100261.84;;;32.14;25.59
75855;BME280;64502;59.976;30.316;2023-07-13T14:21:19;100272.50;;;31.75;26.04
75855;BME280;64502;59.976;30.316;2023-07-13T14:23:46;100276.31;;;31.50;26.49
75855;BME280;64502;59.976;30.316;2023-07-13T14:26:21;100270.38;;;31.65;26.54
75855;BME280;64502;59.976;30.316;2023-07-13T14:28:49;100270.50;;;31.58;26.39
75855;BME280;64502;59.976;30.316;2023-07-13T14:31:16;100269.69;;;31.58;26.03
75855;BME280;64502;59.976;30.316;2023-07-13T14:33:42;100269.78;;;31.28;27.01
75855;BME280;64502;59.976;30.316;2023-07-13T14:36:31;100270.16;;;31.55;26.93
75855;BME280;64502;59.976;30.316;2023-07-13T14:38:58;100272.16;;;31.36;26.66
75855;BME280;64502;59.976;30.316;2023-07-13T14:41:25;100267.50;;;31.83;26.35
75855;BME280;64502;59.976;30.316;2023-07-13T14:43:50;100257.47;;;32.13;26.44
75855;BME280;64502;59.976;30.316;2023-07-13T14:46:36;100267.13;;;32.32;25.96
75855;BME280;64502;59.976;30.316;2023-07-13T14:51:38;100255.97;;;32.05;25.52
75855;BME280;64502;59.976;30.316;2023-07-13T14:54:05;100252.78;;;31.96;25.83
75855;BME280;64502;59.976;30.316;2023-07-13T14:56:31;100252.19;;;32.06;25.42
75855;BME280;64502;59.976;30.316;2023-07-13T14:58:57;100249.19;;;32.08;25.52
75855;BME280;64502;59.976;30.316;2023-07-13T15:01:23;100249.72;;;32.21;25.59
75855;BME280;64502;59.976;30.316;2023-07-13T15:03:52;100262.44;;;32.73;25.13
75855;BME280;64502;59.976;30.316;2023-07-13T15:06:18;100254.56;;;32.31;24.88
75855;BME280;64502;59.976;30.316;2023-07-13T15:08:45;100248.91;;;32.21;25.21
75855;BME280;64502;59.976;30.316;2023-07-13T15:11:11;100251.47;;;31.99;24.96
75855;BME280;64502;59.976;30.316;2023-07-13T15:13:38;100257.81;;;32.16;24.75
75855;BME280;64502;59.976;30.316;2023-07-13T15:16:05;100259.94;;;32.55;23.53
75855;BME280;64502;59.976;30.316;2023-07-13T15:18:36;100257.66;;;32.63;23.24
75855;BME280;64502;59.976;30.316;2023-07-13T15:21:03;100250.69;;;32.72;23.51
75855;BME280;64502;59.976;30.316;2023-07-13T15:23:29;100259.31;;;32.81;22.84
75855;BME280;64502;59.976;30.316;2023-07-13T15:25:54;100259.78;;;33.07;22.69
75855;BME280;64502;59.976;30.316;2023-07-13T15:28:20;100256.66;;;33.54;21.90
75855;BME280;64502;59.976;30.316;2023-07-13T15:30:48;100263.72;;;34.11;21.84
75855;BME280;64502;59.976;30.316;2023-07-13T15:33:19;100261.97;;;35.13;21.94
75855;BME280;64502;59.976;30.316;2023-07-13T15:35:47;100262.88;;;35.24;19.56
75855;BME280;64502;59.976;30.316;2023-07-13T15:38:20;100262.13;;;35.33;19.82
75855;BME280;64502;59.976;30.316;2023-07-13T15:40:47;100259.91;;;35.35;19.74
75855;BME280;64502;59.976;30.316;2023-07-13T15:43:14;100259.09;;;35.77;19.21
75855;BME280;64502;59.976;30.316;2023-07-13T15:45:41;100271.47;;;35.80;19.49
75855;BME280;64502;59.976;30.316;2023-07-13T15:48:31;100262.69;;;36.82;19.13
75855;BME280;64502;59.976;30.316;2023-07-13T15:51:01;100259.28;;;36.29;18.46